Terminal Aerodrome Forecast
Issued by NWS

Home | Current Version | Previous Version | Text Only | Print | Product List | Glossary On
Versions: 1 2 3 4 5 6 7 8 9 10 11 12 13 14 15
000
FTUS46 KMTR 240520
TAFOAK
TAF
KOAK 240520Z 2406/2512 31003KT P6SM SCT015 BKN150
     FM240900 33004KT P6SM BKN015
     FM241100 33003KT 4SM BR OVC009
     FM241800 28003KT P6SM FEW010 BKN150 OVC200
     FM242000 29006KT P6SM FEW010 BKN150
     FM250000 32005KT P6SM BKN120
     FM250500 VRB04KT P6SM BKN100=

USA.gov is the U.S. government's official web portal to all federal, state and local government web resources and services.